sensor_id;sensor_type;location;lat;lon;timestamp;P1;durP1;ratioP1;P2;durP2;ratioP2
29362;SDS011;16349;53.672;10.014;2023-10-13T00:01:01;8.93;;;2.27;;
29362;SDS011;16349;53.672;10.014;2023-10-13T00:03:33;6.93;;;2.33;;
29362;SDS011;16349;53.672;10.014;2023-10-13T00:06:02;13.10;;;3.17;;
29362;SDS011;16349;53.672;10.014;2023-10-13T00:08:29;8.13;;;2.50;;
29362;SDS011;16349;53.672;10.014;2023-10-13T00:10:56;9.73;;;2.40;;
29362;SDS011;16349;53.672;10.014;2023-10-13T00:13:26;5.33;;;2.23;;
29362;SDS011;16349;53.672;10.014;2023-10-13T00:15:54;8.23;;;2.70;;
29362;SDS011;16349;53.672;10.014;2023-10-13T00:18:24;7.13;;;2.57;;
29362;SDS011;16349;53.672;10.014;2023-10-13T00:20:57;7.57;;;2.50;;
29362;SDS011;16349;53.672;10.014;2023-10-13T00:23:24;7.73;;;2.70;;
29362;SDS011;16349;53.672;10.014;2023-10-13T00:25:52;7.77;;;2.77;;
29362;SDS011;16349;53.672;10.014;2023-10-13T00:28:28;7.00;;;2.87;;
29362;SDS011;16349;53.672;10.014;2023-10-13T00:31:08;8.97;;;2.90;;
29362;SDS011;16349;53.672;10.014;2023-10-13T00:33:37;6.63;;;3.13;;
29362;SDS011;16349;53.672;10.014;2023-10-13T00:36:07;8.47;;;3.10;;
29362;SDS011;16349;53.672;10.014;2023-10-13T00:38:42;6.83;;;2.80;;
29362;SDS011;16349;53.672;10.014;2023-10-13T00:41:13;10.33;;;3.33;;
29362;SDS011;16349;53.672;10.014;2023-10-13T00:43:44;7.73;;;2.80;;
29362;SDS011;16349;53.672;10.014;2023-10-13T00:46:29;6.80;;;3.37;;
29362;SDS011;16349;53.672;10.014;2023-10-13T00:49:00;8.97;;;3.30;;
29362;SDS011;16349;53.672;10.014;2023-10-13T00:51:31;7.40;;;3.13;;
29362;SDS011;16349;53.672;10.014;2023-10-13T00:54:01;14.20;;;3.53;;
29362;SDS011;16349;53.672;10.014;2023-10-13T00:56:32;12.10;;;3.40;;
29362;SDS011;16349;53.672;10.014;2023-10-13T00:58:59;11.60;;;4.47;;
29362;SDS011;16349;53.672;10.014;2023-10-13T01:01:27;16.03;;;3.97;;
29362;SDS011;16349;53.672;10.014;2023-10-13T01:03:55;11.07;;;4.07;;
29362;SDS011;16349;53.672;10.014;2023-10-13T01:06:24;12.77;;;4.83;;
29362;SDS011;16349;53.672;10.014;2023-10-13T01:08:57;7.90;;;4.67;;
29362;SDS011;16349;53.672;10.014;2023-10-13T01:11:37;12.63;;;5.53;;
29362;SDS011;16349;53.672;10.014;2023-10-13T01:14:04;12.07;;;5.27;;
29362;SDS011;16349;53.672;10.014;2023-10-13T01:16:31;11.10;;;5.23;;
29362;SDS011;16349;53.672;10.014;2023-10-13T01:18:57;12.73;;;5.73;;
29362;SDS011;16349;53.672;10.014;2023-10-13T01:21:30;14.23;;;5.40;;
29362;SDS011;16349;53.672;10.014;2023-10-13T01:23:59;13.97;;;6.43;;
29362;SDS011;16349;53.672;10.014;2023-10-13T01:26:26;16.60;;;6.40;;
29362;SDS011;16349;53.672;10.014;2023-10-13T01:28:56;17.67;;;6.10;;
29362;SDS011;16349;53.672;10.014;2023-10-13T01:31:23;20.43;;;7.30;;
29362;SDS011;16349;53.672;10.014;2023-10-13T01:33:52;13.80;;;6.47;;
29362;SDS011;16349;53.672;10.014;2023-10-13T01:36:22;17.33;;;7.60;;
29362;SDS011;16349;53.672;10.014;2023-10-13T01:38:48;20.50;;;6.63;;
29362;SDS011;16349;53.672;10.014;2023-10-13T01:41:18;24.90;;;8.03;;
29362;SDS011;16349;53.672;10.014;2023-10-13T01:43:44;18.37;;;7.47;;
29362;SDS011;16349;53.672;10.014;2023-10-13T01:46:11;25.37;;;9.07;;
29362;SDS011;16349;53.672;10.014;2023-10-13T01:48:40;22.73;;;7.70;;
29362;SDS011;16349;53.672;10.014;2023-10-13T01:51:07;19.93;;;7.60;;
29362;SDS011;16349;53.672;10.014;2023-10-13T01:53:39;24.07;;;8.87;;
29362;SDS011;16349;53.672;10.014;2023-10-13T01:56:06;24.20;;;9.43;;
29362;SDS011;16349;53.672;10.014;2023-10-13T01:58:38;27.40;;;10.57;;
29362;SDS011;16349;53.672;10.014;2023-10-13T02:01:07;21.97;;;8.73;;
29362;SDS011;16349;53.672;10.014;2023-10-13T02:03:35;21.97;;;9.17;;
29362;SDS011;16349;53.672;10.014;2023-10-13T02:06:07;27.60;;;10.00;;
29362;SDS011;16349;53.672;10.014;2023-10-13T02:08:41;25.40;;;8.60;;
29362;SDS011;16349;53.672;10.014;2023-10-13T02:11:08;27.10;;;9.07;;
29362;SDS011;16349;53.672;10.014;2023-10-13T02:13:36;23.23;;;9.43;;
29362;SDS011;16349;53.672;10.014;2023-10-13T02:16:13;24.67;;;9.73;;
29362;SDS011;16349;53.672;10.014;2023-10-13T02:18:43;22.33;;;10.30;;
29362;SDS011;16349;53.672;10.014;2023-10-13T02:21:10;33.63;;;11.10;;
29362;SDS011;16349;53.672;10.014;2023-10-13T02:23:39;23.17;;;10.93;;
29362;SDS011;16349;53.672;10.014;2023-10-13T02:26:10;22.00;;;10.90;;
29362;SDS011;16349;53.672;10.014;2023-10-13T02:28:40;22.70;;;10.07;;
29362;SDS011;16349;53.672;10.014;2023-10-13T02:31:06;25.33;;;10.97;;
29362;SDS011;16349;53.672;10.014;2023-10-13T02:33:33;27.47;;;10.93;;
29362;SDS011;16349;53.672;10.014;2023-10-13T02:36:00;30.70;;;11.53;;
29362;SDS011;16349;53.672;10.014;2023-10-13T02:38:30;27.00;;;11.47;;
29362;SDS011;16349;53.672;10.014;2023-10-13T02:41:00;33.67;;;12.40;;
29362;SDS011;16349;53.672;10.014;2023-10-13T02:43:32;33.27;;;11.40;;
29362;SDS011;16349;53.672;10.014;2023-10-13T02:46:00;27.47;;;11.43;;
29362;SDS011;16349;53.672;10.014;2023-10-13T02:48:28;31.83;;;11.57;;
29362;SDS011;16349;53.672;10.014;2023-10-13T02:50:58;33.10;;;12.03;;
29362;SDS011;16349;53.672;10.014;2023-10-13T02:53:31;29.93;;;12.00;;
29362;SDS011;16349;53.672;10.014;2023-10-13T02:55:57;28.10;;;11.57;;
29362;SDS011;16349;53.672;10.014;2023-10-13T02:58:30;30.10;;;12.47;;
29362;SDS011;16349;53.672;10.014;2023-10-13T03:01:06;28.43;;;13.03;;
29362;SDS011;16349;53.672;10.014;2023-10-13T03:03:42;34.60;;;12.87;;
29362;SDS011;16349;53.672;10.014;2023-10-13T03:06:15;36.20;;;12.80;;
29362;SDS011;16349;53.672;10.014;2023-10-13T03:08:42;26.43;;;12.43;;
29362;SDS011;16349;53.672;10.014;2023-10-13T03:11:09;33.37;;;12.93;;
29362;SDS011;16349;53.672;10.014;2023-10-13T03:13:36;28.97;;;12.67;;
29362;SDS011;16349;53.672;10.014;2023-10-13T03:16:13;27.53;;;12.20;;
29362;SDS011;16349;53.672;10.014;2023-10-13T03:18:45;31.30;;;13.67;;
29362;SDS011;16349;53.672;10.014;2023-10-13T03:21:19;25.50;;;12.57;;
29362;SDS011;16349;53.672;10.014;2023-10-13T03:23:58;26.57;;;11.83;;
29362;SDS011;16349;53.672;10.014;2023-10-13T03:26:31;27.37;;;13.00;;
29362;SDS011;16349;53.672;10.014;2023-10-13T03:29:02;30.57;;;13.17;;
29362;SDS011;16349;53.672;10.014;2023-10-13T03:31:31;23.17;;;12.43;;
29362;SDS011;16349;53.672;10.014;2023-10-13T03:34:02;27.43;;;12.43;;
29362;SDS011;16349;53.672;10.014;2023-10-13T03:36:33;31.83;;;12.30;;
29362;SDS011;16349;53.672;10.014;2023-10-13T03:39:18;24.60;;;12.60;;
29362;SDS011;16349;53.672;10.014;2023-10-13T03:41:48;28.00;;;12.83;;
29362;SDS011;16349;53.672;10.014;2023-10-13T03:44:18;24.27;;;12.47;;
29362;SDS011;16349;53.672;10.014;2023-10-13T03:46:49;24.77;;;11.77;;
29362;SDS011;16349;53.672;10.014;2023-10-13T03:49:19;22.63;;;11.27;;
29362;SDS011;16349;53.672;10.014;2023-10-13T03:51:47;25.17;;;11.57;;
29362;SDS011;16349;53.672;10.014;2023-10-13T03:54:14;21.50;;;11.47;;
29362;SDS011;16349;53.672;10.014;2023-10-13T03:56:42;22.40;;;10.90;;
29362;SDS011;16349;53.672;10.014;2023-10-13T03:59:10;20.30;;;10.87;;
29362;SDS011;16349;53.672;10.014;2023-10-13T04:01:44;22.80;;;10.40;;
29362;SDS011;16349;53.672;10.014;2023-10-13T04:04:14;18.83;;;9.93;;
29362;SDS011;16349;53.672;10.014;2023-10-13T04:06:59;19.63;;;10.20;;
29362;SDS011;16349;53.672;10.014;2023-10-13T04:09:38;18.30;;;9.40;;
29362;SDS011;16349;53.672;10.014;2023-10-13T04:12:35;20.57;;;9.47;;
29362;SDS011;16349;53.672;10.014;2023-10-13T04:15:19;12.77;;;8.67;;
29362;SDS011;16349;53.672;10.014;2023-10-13T04:17:49;14.27;;;8.77;;
29362;SDS011;16349;53.672;10.014;2023-10-13T04:20:17;16.20;;;9.23;;
29362;SDS011;16349;53.672;10.014;2023-10-13T04:23:03;14.43;;;8.17;;
29362;SDS011;16349;53.672;10.014;2023-10-13T04:25:43;21.10;;;8.37;;
29362;SDS011;16349;53.672;10.014;2023-10-13T04:28:33;13.23;;;8.23;;
29362;SDS011;16349;53.672;10.014;2023-10-13T04:31:00;18.23;;;9.43;;
29362;SDS011;16349;53.672;10.014;2023-10-13T04:33:37;17.20;;;9.50;;
29362;SDS011;16349;53.672;10.014;2023-10-13T04:36:19;15.47;;;10.43;;
29362;SDS011;16349;53.672;10.014;2023-10-13T04:39:01;14.37;;;9.70;;
29362;SDS011;16349;53.672;10.014;2023-10-13T04:41:34;16.73;;;9.33;;
29362;SDS011;16349;53.672;10.014;2023-10-13T04:44:04;18.50;;;10.50;;
29362;SDS011;16349;53.672;10.014;2023-10-13T04:46:49;18.30;;;10.60;;
29362;SDS011;16349;53.672;10.014;2023-10-13T04:49:34;19.20;;;12.10;;
29362;SDS011;16349;53.672;10.014;2023-10-13T04:52:16;18.80;;;11.03;;
29362;SDS011;16349;53.672;10.014;2023-10-13T04:55:16;18.10;;;11.83;;
29362;SDS011;16349;53.672;10.014;2023-10-13T04:57:49;19.40;;;12.50;;
29362;SDS011;16349;53.672;10.014;2023-10-13T05:00:25;20.93;;;11.83;;
29362;SDS011;16349;53.672;10.014;2023-10-13T05:03:10;21.60;;;12.60;;
29362;SDS011;16349;53.672;10.014;2023-10-13T05:06:16;19.60;;;11.80;;
29362;SDS011;16349;53.672;10.014;2023-10-13T05:09:01;19.73;;;12.17;;
29362;SDS011;16349;53.672;10.014;2023-10-13T05:11:46;23.73;;;12.47;;
29362;SDS011;16349;53.672;10.014;2023-10-13T05:14:30;24.80;;;13.13;;
29362;SDS011;16349;53.672;10.014;2023-10-13T05:17:15;21.47;;;13.43;;
29362;SDS011;16349;53.672;10.014;2023-10-13T05:19:59;25.33;;;13.77;;
29362;SDS011;16349;53.672;10.014;2023-10-13T05:22:44;23.70;;;14.07;;
29362;SDS011;16349;53.672;10.014;2023-10-13T05:25:29;22.97;;;14.70;;
29362;SDS011;16349;53.672;10.014;2023-10-13T05:28:14;25.13;;;14.63;;
29362;SDS011;16349;53.672;10.014;2023-10-13T05:30:58;28.00;;;14.80;;
29362;SDS011;16349;53.672;10.014;2023-10-13T05:33:42;28.20;;;16.50;;
29362;SDS011;16349;53.672;10.014;2023-10-13T05:36:27;28.13;;;15.57;;
29362;SDS011;16349;53.672;10.014;2023-10-13T05:39:11;27.27;;;16.77;;
29362;SDS011;16349;53.672;10.014;2023-10-13T05:41:57;30.57;;;17.53;;
29362;SDS011;16349;53.672;10.014;2023-10-13T05:44:41;39.93;;;19.70;;
29362;SDS011;16349;53.672;10.014;2023-10-13T05:47:21;31.77;;;19.47;;
29362;SDS011;16349;53.672;10.014;2023-10-13T05:50:06;38.83;;;21.83;;
29362;SDS011;16349;53.672;10.014;2023-10-13T05:52:54;35.73;;;21.43;;
29362;SDS011;16349;53.672;10.014;2023-10-13T05:55:38;39.50;;;22.43;;
29362;SDS011;16349;53.672;10.014;2023-10-13T05:58:24;43.70;;;22.00;;
29362;SDS011;16349;53.672;10.014;2023-10-13T06:01:12;43.33;;;24.03;;
29362;SDS011;16349;53.672;10.014;2023-10-13T06:03:56;39.17;;;24.90;;
29362;SDS011;16349;53.672;10.014;2023-10-13T06:06:41;44.87;;;25.40;;
29362;SDS011;16349;53.672;10.014;2023-10-13T06:09:25;48.17;;;26.60;;
29362;SDS011;16349;53.672;10.014;2023-10-13T06:12:10;49.73;;;26.80;;
29362;SDS011;16349;53.672;10.014;2023-10-13T06:14:55;49.63;;;26.43;;
29362;SDS011;16349;53.672;10.014;2023-10-13T06:17:40;46.90;;;25.73;;
29362;SDS011;16349;53.672;10.014;2023-10-13T06:20:25;43.97;;;26.27;;
29362;SDS011;16349;53.672;10.014;2023-10-13T06:23:09;51.33;;;27.80;;
29362;SDS011;16349;53.672;10.014;2023-10-13T06:25:55;47.43;;;26.63;;
29362;SDS011;16349;53.672;10.014;2023-10-13T06:28:40;46.77;;;25.17;;
29362;SDS011;16349;53.672;10.014;2023-10-13T06:31:09;44.43;;;25.87;;
29362;SDS011;16349;53.672;10.014;2023-10-13T06:33:46;41.50;;;24.33;;
29362;SDS011;16349;53.672;10.014;2023-10-13T06:36:13;41.40;;;24.80;;
29362;SDS011;16349;53.672;10.014;2023-10-13T06:38:40;44.33;;;25.70;;
29362;SDS011;16349;53.672;10.014;2023-10-13T06:41:07;40.47;;;25.43;;
29362;SDS011;16349;53.672;10.014;2023-10-13T06:43:34;40.50;;;24.43;;
29362;SDS011;16349;53.672;10.014;2023-10-13T06:46:05;42.97;;;24.57;;
29362;SDS011;16349;53.672;10.014;2023-10-13T06:48:34;33.47;;;22.57;;
29362;SDS011;16349;53.672;10.014;2023-10-13T06:51:01;39.63;;;24.37;;
29362;SDS011;16349;53.672;10.014;2023-10-13T06:53:43;37.17;;;24.30;;
29362;SDS011;16349;53.672;10.014;2023-10-13T06:56:12;36.80;;;23.97;;
29362;SDS011;16349;53.672;10.014;2023-10-13T06:58:47;37.87;;;24.93;;
29362;SDS011;16349;53.672;10.014;2023-10-13T07:01:14;34.53;;;23.90;;
29362;SDS011;16349;53.672;10.014;2023-10-13T07:03:48;38.00;;;24.97;;
29362;SDS011;16349;53.672;10.014;2023-10-13T07:06:18;32.90;;;23.33;;
29362;SDS011;16349;53.672;10.014;2023-10-13T07:08:45;39.23;;;24.97;;
29362;SDS011;16349;53.672;10.014;2023-10-13T07:11:17;41.17;;;24.60;;
29362;SDS011;16349;53.672;10.014;2023-10-13T07:13:48;37.30;;;24.63;;
29362;SDS011;16349;53.672;10.014;2023-10-13T07:16:17;32.20;;;23.53;;
29362;SDS011;16349;53.672;10.014;2023-10-13T07:18:44;37.80;;;24.57;;
29362;SDS011;16349;53.672;10.014;2023-10-13T07:21:19;37.33;;;23.77;;
29362;SDS011;16349;53.672;10.014;2023-10-13T07:23:56;39.23;;;24.40;;
29362;SDS011;16349;53.672;10.014;2023-10-13T07:26:33;36.93;;;24.90;;
29362;SDS011;16349;53.672;10.014;2023-10-13T07:29:07;37.07;;;23.73;;
29362;SDS011;16349;53.672;10.014;2023-10-13T07:31:35;33.20;;;22.73;;
29362;SDS011;16349;53.672;10.014;2023-10-13T07:34:03;33.43;;;24.00;;
29362;SDS011;16349;53.672;10.014;2023-10-13T07:36:39;30.57;;;22.70;;
29362;SDS011;16349;53.672;10.014;2023-10-13T07:39:08;31.60;;;22.30;;
29362;SDS011;16349;53.672;10.014;2023-10-13T07:41:49;33.47;;;22.47;;
29362;SDS011;16349;53.672;10.014;2023-10-13T07:44:21;29.07;;;21.17;;
29362;SDS011;16349;53.672;10.014;2023-10-13T07:46:50;29.93;;;22.33;;
29362;SDS011;16349;53.672;10.014;2023-10-13T07:49:26;26.80;;;21.23;;
29362;SDS011;16349;53.672;10.014;2023-10-13T07:51:57;26.30;;;20.43;;
29362;SDS011;16349;53.672;10.014;2023-10-13T07:54:28;30.63;;;21.47;;
29362;SDS011;16349;53.672;10.014;2023-10-13T07:56:55;32.00;;;22.27;;
29362;SDS011;16349;53.672;10.014;2023-10-13T07:59:22;27.33;;;20.77;;
29362;SDS011;16349;53.672;10.014;2023-10-13T08:01:50;28.87;;;19.83;;
29362;SDS011;16349;53.672;10.014;2023-10-13T08:04:31;26.37;;;20.37;;
29362;SDS011;16349;53.672;10.014;2023-10-13T08:07:02;29.37;;;20.00;;
29362;SDS011;16349;53.672;10.014;2023-10-13T08:09:38;27.20;;;19.27;;
29362;SDS011;16349;53.672;10.014;2023-10-13T08:12:06;28.83;;;18.67;;
29362;SDS011;16349;53.672;10.014;2023-10-13T08:14:37;26.07;;;19.03;;
29362;SDS011;16349;53.672;10.014;2023-10-13T08:17:06;27.57;;;18.53;;
29362;SDS011;16349;53.672;10.014;2023-10-13T08:19:34;22.83;;;19.00;;
29362;SDS011;16349;53.672;10.014;2023-10-13T08:22:08;21.37;;;16.77;;
29362;SDS011;16349;53.672;10.014;2023-10-13T08:24:51;21.60;;;16.53;;
29362;SDS011;16349;53.672;10.014;2023-10-13T08:27:40;22.33;;;16.90;;
29362;SDS011;16349;53.672;10.014;2023-10-13T08:30:30;21.57;;;16.10;;
29362;SDS011;16349;53.672;10.014;2023-10-13T08:33:07;22.07;;;15.97;;
29362;SDS011;16349;53.672;10.014;2023-10-13T08:35:43;16.80;;;14.07;;
29362;SDS011;16349;53.672;10.014;2023-10-13T08:38:36;16.97;;;13.93;;
29362;SDS011;16349;53.672;10.014;2023-10-13T08:41:16;20.90;;;15.63;;
29362;SDS011;16349;53.672;10.014;2023-10-13T08:43:55;19.47;;;13.63;;
29362;SDS011;16349;53.672;10.014;2023-10-13T08:46:31;14.50;;;12.43;;
29362;SDS011;16349;53.672;10.014;2023-10-13T08:49:17;14.90;;;11.87;;
29362;SDS011;16349;53.672;10.014;2023-10-13T08:51:48;11.83;;;10.57;;
29362;SDS011;16349;53.672;10.014;2023-10-13T08:54:31;13.07;;;10.53;;
29362;SDS011;16349;53.672;10.014;2023-10-13T08:57:04;11.50;;;9.93;;
29362;SDS011;16349;53.672;10.014;2023-10-13T08:59:58;11.33;;;9.43;;
29362;SDS011;16349;53.672;10.014;2023-10-13T09:02:50;11.90;;;10.70;;
29362;SDS011;16349;53.672;10.014;2023-10-13T09:05:25;10.30;;;9.27;;
29362;SDS011;16349;53.672;10.014;2023-10-13T09:08:07;11.97;;;10.00;;
29362;SDS011;16349;53.672;10.014;2023-10-13T09:10:35;10.97;;;9.07;;
29362;SDS011;16349;53.672;10.014;2023-10-13T09:13:20;9.30;;;8.33;;
29362;SDS011;16349;53.672;10.014;2023-10-13T09:15:46;8.90;;;8.00;;
29362;SDS011;16349;53.672;10.014;2023-10-13T09:18:27;8.77;;;7.83;;
29362;SDS011;16349;53.672;10.014;2023-10-13T09:21:11;9.50;;;7.30;;
29362;SDS011;16349;53.672;10.014;2023-10-13T09:24:12;8.10;;;7.30;;
29362;SDS011;16349;53.672;10.014;2023-10-13T09:26:53;8.30;;;7.50;;
29362;SDS011;16349;53.672;10.014;2023-10-13T09:29:21;7.90;;;7.10;;
29362;SDS011;16349;53.672;10.014;2023-10-13T09:31:47;8.33;;;6.93;;
29362;SDS011;16349;53.672;10.014;2023-10-13T09:34:27;7.80;;;6.37;;
29362;SDS011;16349;53.672;10.014;2023-10-13T09:36:59;10.10;;;6.97;;
29362;SDS011;16349;53.672;10.014;2023-10-13T09:39:29;8.63;;;6.97;;
29362;SDS011;16349;53.672;10.014;2023-10-13T09:42:02;8.47;;;7.57;;
29362;SDS011;16349;53.672;10.014;2023-10-13T09:44:28;8.53;;;7.20;;
29362;SDS011;16349;53.672;10.014;2023-10-13T09:47:00;7.40;;;6.80;;
29362;SDS011;16349;53.672;10.014;2023-10-13T09:49:34;9.10;;;6.43;;
29362;SDS011;16349;53.672;10.014;2023-10-13T09:52:13;7.50;;;6.13;;
29362;SDS011;16349;53.672;10.014;2023-10-13T09:54:48;7.00;;;6.00;;
29362;SDS011;16349;53.672;10.014;2023-10-13T09:57:29;7.03;;;6.20;;
29362;SDS011;16349;53.672;10.014;2023-10-13T10:00:01;9.13;;;5.87;;
29362;SDS011;16349;53.672;10.014;2023-10-13T10:02:52;5.90;;;5.33;;
29362;SDS011;16349;53.672;10.014;2023-10-13T10:05:23;8.97;;;6.30;;
29362;SDS011;16349;53.672;10.014;2023-10-13T10:07:54;9.43;;;6.17;;
29362;SDS011;16349;53.672;10.014;2023-10-13T10:10:21;6.17;;;5.53;;
29362;SDS011;16349;53.672;10.014;2023-10-13T10:12:52;9.10;;;5.27;;
29362;SDS011;16349;53.672;10.014;2023-10-13T10:15:27;8.67;;;5.53;;
29362;SDS011;16349;53.672;10.014;2023-10-13T10:18:01;8.63;;;5.50;;
29362;SDS011;16349;53.672;10.014;2023-10-13T10:20:29;7.32;;;6.00;;
29362;SDS011;16349;53.672;10.014;2023-10-13T10:23:07;8.55;;;6.40;;
29362;SDS011;16349;53.672;10.014;2023-10-13T10:25:38;7.43;;;5.90;;
29362;SDS011;16349;53.672;10.014;2023-10-13T10:28:11;6.93;;;5.37;;
29362;SDS011;16349;53.672;10.014;2023-10-13T10:30:41;8.63;;;5.40;;
29362;SDS011;16349;53.672;10.014;2023-10-13T10:33:09;7.60;;;5.80;;
29362;SDS011;16349;53.672;10.014;2023-10-13T10:35:39;8.77;;;5.47;;
29362;SDS011;16349;53.672;10.014;2023-10-13T10:38:11;10.03;;;5.97;;
29362;SDS011;16349;53.672;10.014;2023-10-13T10:40:51;12.37;;;5.30;;
29362;SDS011;16349;53.672;10.014;2023-10-13T10:43:24;8.73;;;5.50;;
29362;SDS011;16349;53.672;10.014;2023-10-13T10:45:54;7.53;;;5.13;;
29362;SDS011;16349;53.672;10.014;2023-10-13T10:48:25;8.73;;;5.40;;
29362;SDS011;16349;53.672;10.014;2023-10-13T10:50:59;7.23;;;5.70;;
29362;SDS011;16349;53.672;10.014;2023-10-13T10:53:33;9.37;;;4.97;;
29362;SDS011;16349;53.672;10.014;2023-10-13T10:56:09;6.80;;;5.60;;
29362;SDS011;16349;53.672;10.014;2023-10-13T10:58:47;10.70;;;5.53;;
29362;SDS011;16349;53.672;10.014;2023-10-13T11:01:20;8.43;;;6.23;;
29362;SDS011;16349;53.672;10.014;2023-10-13T11:03:54;10.63;;;5.87;;
29362;SDS011;16349;53.672;10.014;2023-10-13T11:06:23;9.07;;;6.03;;
29362;SDS011;16349;53.672;10.014;2023-10-13T11:11:44;7.90;;;5.63;;
29362;SDS011;16349;53.672;10.014;2023-10-13T11:14:20;12.00;;;6.67;;
29362;SDS011;16349;53.672;10.014;2023-10-13T11:16:49;10.80;;;5.50;;
29362;SDS011;16349;53.672;10.014;2023-10-13T11:19:19;7.60;;;5.97;;
29362;SDS011;16349;53.672;10.014;2023-10-13T11:21:53;13.23;;;5.63;;
29362;SDS011;16349;53.672;10.014;2023-10-13T11:24:21;8.80;;;5.80;;
29362;SDS011;16349;53.672;10.014;2023-10-13T11:26:48;11.40;;;6.00;;
29362;SDS011;16349;53.672;10.014;2023-10-13T11:29:16;8.57;;;6.40;;
29362;SDS011;16349;53.672;10.014;2023-10-13T11:31:47;11.77;;;6.40;;
29362;SDS011;16349;53.672;10.014;2023-10-13T11:34:19;5.97;;;5.47;;
29362;SDS011;16349;53.672;10.014;2023-10-13T11:36:46;9.20;;;6.03;;
29362;SDS011;16349;53.672;10.014;2023-10-13T11:39:13;7.23;;;5.90;;
29362;SDS011;16349;53.672;10.014;2023-10-13T11:41:49;12.60;;;5.93;;
29362;SDS011;16349;53.672;10.014;2023-10-13T11:44:20;6.43;;;5.83;;
29362;SDS011;16349;53.672;10.014;2023-10-13T11:46:57;11.73;;;6.17;;
29362;SDS011;16349;53.672;10.014;2023-10-13T11:49:41;8.23;;;6.27;;
29362;SDS011;16349;53.672;10.014;2023-10-13T11:52:09;11.00;;;6.20;;
29362;SDS011;16349;53.672;10.014;2023-10-13T11:54:42;11.70;;;5.27;;
29362;SDS011;16349;53.672;10.014;2023-10-13T11:57:09;6.90;;;5.80;;
29362;SDS011;16349;53.672;10.014;2023-10-13T11:59:36;10.03;;;4.50;;
29362;SDS011;16349;53.672;10.014;2023-10-13T12:02:11;7.23;;;4.70;;
29362;SDS011;16349;53.672;10.014;2023-10-13T12:04:56;5.97;;;4.37;;
29362;SDS011;16349;53.672;10.014;2023-10-13T12:07:24;6.93;;;4.97;;
29362;SDS011;16349;53.672;10.014;2023-10-13T12:10:08;9.13;;;5.63;;
29362;SDS011;16349;53.672;10.014;2023-10-13T12:12:41;12.17;;;5.20;;
29362;SDS011;16349;53.672;10.014;2023-10-13T12:15:11;6.40;;;4.43;;
29362;SDS011;16349;53.672;10.014;2023-10-13T12:17:51;7.57;;;4.43;;
29362;SDS011;16349;53.672;10.014;2023-10-13T12:20:23;8.53;;;4.03;;
29362;SDS011;16349;53.672;10.014;2023-10-13T12:22:59;6.20;;;4.03;;
29362;SDS011;16349;53.672;10.014;2023-10-13T12:25:36;7.40;;;4.30;;
29362;SDS011;16349;53.672;10.014;2023-10-13T12:28:20;8.23;;;4.37;;
29362;SDS011;16349;53.672;10.014;2023-10-13T12:30:48;8.63;;;4.77;;
29362;SDS011;16349;53.672;10.014;2023-10-13T12:33:19;7.83;;;4.13;;
29362;SDS011;16349;53.672;10.014;2023-10-13T12:35:58;7.38;;;4.10;;
29362;SDS011;16349;53.672;10.014;2023-10-13T12:38:56;9.00;;;4.20;;
29362;SDS011;16349;53.672;10.014;2023-10-13T12:41:41;12.03;;;4.10;;
29362;SDS011;16349;53.672;10.014;2023-10-13T12:44:25;9.95;;;4.50;;
29362;SDS011;16349;53.672;10.014;2023-10-13T12:47:09;5.38;;;4.85;;
29362;SDS011;16349;53.672;10.014;2023-10-13T12:49:55;6.03;;;3.50;;
29362;SDS011;16349;53.672;10.014;2023-10-13T12:52:32;8.53;;;3.90;;
29362;SDS011;16349;53.672;10.014;2023-10-13T12:55:01;11.30;;;3.85;;
29362;SDS011;16349;53.672;10.014;2023-10-13T12:57:35;7.30;;;3.60;;
29362;SDS011;16349;53.672;10.014;2023-10-13T13:00:09;10.55;;;3.90;;
29362;SDS011;16349;53.672;10.014;2023-10-13T13:02:58;9.82;;;4.18;;
29362;SDS011;16349;53.672;10.014;2023-10-13T13:05:27;10.07;;;4.53;;
29362;SDS011;16349;53.672;10.014;2023-10-13T13:07:57;6.28;;;3.75;;
29362;SDS011;16349;53.672;10.014;2023-10-13T13:10:24;10.18;;;4.30;;
29362;SDS011;16349;53.672;10.014;2023-10-13T13:13:01;7.88;;;4.40;;
29362;SDS011;16349;53.672;10.014;2023-10-13T13:15:30;9.23;;;4.43;;
29362;SDS011;16349;53.672;10.014;2023-10-13T13:17:57;7.30;;;4.38;;
29362;SDS011;16349;53.672;10.014;2023-10-13T13:20:36;6.13;;;4.35;;
29362;SDS011;16349;53.672;10.014;2023-10-13T13:23:17;7.50;;;3.70;;
29362;SDS011;16349;53.672;10.014;2023-10-13T13:25:44;7.15;;;4.53;;
29362;SDS011;16349;53.672;10.014;2023-10-13T13:28:11;8.15;;;4.47;;
29362;SDS011;16349;53.672;10.014;2023-10-13T13:30:40;8.40;;;4.15;;
29362;SDS011;16349;53.672;10.014;2023-10-13T13:33:07;9.40;;;4.22;;
29362;SDS011;16349;53.672;10.014;2023-10-13T13:35:38;8.35;;;4.88;;
29362;SDS011;16349;53.672;10.014;2023-10-13T13:38:08;8.02;;;4.10;;
29362;SDS011;16349;53.672;10.014;2023-10-13T13:40:47;7.60;;;4.32;;
29362;SDS011;16349;53.672;10.014;2023-10-13T13:43:14;6.07;;;3.90;;
29362;SDS011;16349;53.672;10.014;2023-10-13T13:45:57;6.50;;;4.45;;
29362;SDS011;16349;53.672;10.014;2023-10-13T13:48:26;9.35;;;4.63;;
29362;SDS011;16349;53.672;10.014;2023-10-13T13:50:55;12.07;;;4.88;;
29362;SDS011;16349;53.672;10.014;2023-10-13T13:53:29;8.90;;;4.10;;
29362;SDS011;16349;53.672;10.014;2023-10-13T13:56:00;8.88;;;4.32;;
29362;SDS011;16349;53.672;10.014;2023-10-13T13:58:27;6.65;;;4.55;;
29362;SDS011;16349;53.672;10.014;2023-10-13T14:00:59;6.82;;;4.20;;
29362;SDS011;16349;53.672;10.014;2023-10-13T14:03:26;9.43;;;4.15;;
29362;SDS011;16349;53.672;10.014;2023-10-13T14:05:58;12.15;;;4.75;;
29362;SDS011;16349;53.672;10.014;2023-10-13T14:08:25;8.52;;;4.90;;
29362;SDS011;16349;53.672;10.014;2023-10-13T14:10:52;11.88;;;4.72;;
29362;SDS011;16349;53.672;10.014;2023-10-13T14:13:37;6.47;;;4.32;;
29362;SDS011;16349;53.672;10.014;2023-10-13T14:16:14;12.30;;;4.78;;
29362;SDS011;16349;53.672;10.014;2023-10-13T14:18:45;8.60;;;4.38;;
29362;SDS011;16349;53.672;10.014;2023-10-13T14:21:14;7.95;;;4.22;;
29362;SDS011;16349;53.672;10.014;2023-10-13T14:23:43;11.60;;;5.18;;
29362;SDS011;16349;53.672;10.014;2023-10-13T14:26:12;10.55;;;4.53;;
29362;SDS011;16349;53.672;10.014;2023-10-13T14:28:39;8.95;;;4.97;;
29362;SDS011;16349;53.672;10.014;2023-10-13T14:31:15;8.48;;;5.50;;
29362;SDS011;16349;53.672;10.014;2023-10-13T14:33:44;9.63;;;4.90;;
29362;SDS011;16349;53.672;10.014;2023-10-13T14:36:11;9.50;;;4.88;;
29362;SDS011;16349;53.672;10.014;2023-10-13T14:38:45;10.50;;;5.00;;
29362;SDS011;16349;53.672;10.014;2023-10-13T14:41:15;7.40;;;5.15;;
29362;SDS011;16349;53.672;10.014;2023-10-13T14:43:43;12.63;;;5.05;;
29362;SDS011;16349;53.672;10.014;2023-10-13T14:46:13;7.80;;;4.70;;
29362;SDS011;16349;53.672;10.014;2023-10-13T14:48:41;6.53;;;5.13;;
29362;SDS011;16349;53.672;10.014;2023-10-13T14:51:08;11.25;;;5.25;;
29362;SDS011;16349;53.672;10.014;2023-10-13T14:53:39;10.02;;;5.28;;
29362;SDS011;16349;53.672;10.014;2023-10-13T14:56:09;8.80;;;4.80;;
29362;SDS011;16349;53.672;10.014;2023-10-13T14:58:37;10.63;;;4.60;;
29362;SDS011;16349;53.672;10.014;2023-10-13T15:01:10;14.35;;;5.35;;
29362;SDS011;16349;53.672;10.014;2023-10-13T15:03:40;12.80;;;5.32;;